sensor_id;sensor_type;location;lat;lon;timestamp;pressure;altitude;pressure_sealevel;temperature;humidity
48244;BME280;34053;51.088;6.572;2023-08-12T00:02:29;101227.72;;;25.02;64.40
48244;BME280;34053;51.088;6.572;2023-08-12T00:05:21;101230.06;;;24.95;65.01
48244;BME280;34053;51.088;6.572;2023-08-12T00:08:12;101223.72;;;24.96;64.98
48244;BME280;34053;51.088;6.572;2023-08-12T00:11:03;101221.16;;;24.95;64.66
48244;BME280;34053;51.088;6.572;2023-08-12T00:13:54;101221.03;;;24.96;64.66
48244;BME280;34053;51.088;6.572;2023-08-12T00:16:44;101223.09;;;24.93;64.75
48244;BME280;34053;51.088;6.572;2023-08-12T00:19:35;101221.06;;;24.85;65.37
48244;BME280;34053;51.088;6.572;2023-08-12T00:22:26;101208.38;;;24.87;65.18
48244;BME280;34053;51.088;6.572;2023-08-12T00:25:17;101216.53;;;24.86;64.82
48244;BME280;34053;51.088;6.572;2023-08-12T00:28:07;101205.06;;;24.83;64.69
48244;BME280;34053;51.088;6.572;2023-08-12T00:30:58;101197.88;;;24.84;64.80
48244;BME280;34053;51.088;6.572;2023-08-12T00:33:49;101180.91;;;24.83;66.29
48244;BME280;34053;51.088;6.572;2023-08-12T00:36:40;101179.91;;;24.50;70.16
48244;BME280;34053;51.088;6.572;2023-08-12T00:39:31;101172.09;;;24.59;66.79
48244;BME280;34053;51.088;6.572;2023-08-12T00:42:21;101165.06;;;24.69;66.13
48244;BME280;34053;51.088;6.572;2023-08-12T00:45:12;101170.31;;;24.71;65.67
48244;BME280;34053;51.088;6.572;2023-08-12T00:48:04;101178.25;;;24.72;65.80
48244;BME280;34053;51.088;6.572;2023-08-12T00:50:55;101191.78;;;24.71;65.66
48244;BME280;34053;51.088;6.572;2023-08-12T00:53:46;101188.38;;;24.69;65.76
48244;BME280;34053;51.088;6.572;2023-08-12T00:56:37;101185.78;;;24.67;65.44
48244;BME280;34053;51.088;6.572;2023-08-12T00:59:28;101176.03;;;24.66;65.54
48244;BME280;34053;51.088;6.572;2023-08-12T01:02:19;101179.69;;;24.65;65.44
48244;BME280;34053;51.088;6.572;2023-08-12T01:05:10;101182.38;;;24.65;65.89
48244;BME280;34053;51.088;6.572;2023-08-12T01:08:01;101173.72;;;24.61;65.80
48244;BME280;34053;51.088;6.572;2023-08-12T01:10:55;101179.19;;;24.60;65.70
48244;BME280;34053;51.088;6.572;2023-08-12T01:14:17;101165.28;;;24.55;66.02
48244;BME280;34053;51.088;6.572;2023-08-12T01:17:11;101167.00;;;24.56;65.71
48244;BME280;34053;51.088;6.572;2023-08-12T01:20:03;101159.91;;;24.55;65.62
48244;BME280;34053;51.088;6.572;2023-08-12T01:23:15;101153.44;;;24.57;65.90
48244;BME280;34053;51.088;6.572;2023-08-12T01:26:07;101150.16;;;24.54;65.75
48244;BME280;34053;51.088;6.572;2023-08-12T01:28:57;101158.34;;;24.52;66.00
48244;BME280;34053;51.088;6.572;2023-08-12T01:31:54;101154.09;;;24.49;65.90
48244;BME280;34053;51.088;6.572;2023-08-12T01:37:50;101150.41;;;24.39;66.41
48244;BME280;34053;51.088;6.572;2023-08-12T01:40:43;101143.94;;;24.42;66.43
48244;BME280;34053;51.088;6.572;2023-08-12T01:43:34;101144.78;;;24.42;66.33
48244;BME280;34053;51.088;6.572;2023-08-12T01:46:25;101138.81;;;24.39;66.30
48244;BME280;34053;51.088;6.572;2023-08-12T01:49:16;101137.13;;;24.38;66.03
48244;BME280;34053;51.088;6.572;2023-08-12T01:52:07;101136.50;;;24.34;66.38
48244;BME280;34053;51.088;6.572;2023-08-12T01:54:58;101136.25;;;24.37;66.24
48244;BME280;34053;51.088;6.572;2023-08-12T01:57:49;101127.75;;;24.32;66.19
48244;BME280;34053;51.088;6.572;2023-08-12T02:00:40;101122.84;;;24.26;67.24
48244;BME280;34053;51.088;6.572;2023-08-12T02:03:30;101129.06;;;24.26;66.76
48244;BME280;34053;51.088;6.572;2023-08-12T02:06:21;101122.63;;;24.29;66.76
48244;BME280;34053;51.088;6.572;2023-08-12T02:09:12;101121.88;;;24.27;66.76
48244;BME280;34053;51.088;6.572;2023-08-12T02:12:03;101122.63;;;24.29;66.57
48244;BME280;34053;51.088;6.572;2023-08-12T02:14:54;101124.31;;;24.30;66.78
48244;BME280;34053;51.088;6.572;2023-08-12T02:17:45;101113.00;;;24.26;66.63
48244;BME280;34053;51.088;6.572;2023-08-12T02:20:36;101122.84;;;24.26;66.95
48244;BME280;34053;51.088;6.572;2023-08-12T02:23:26;101121.25;;;24.23;66.85
48244;BME280;34053;51.088;6.572;2023-08-12T02:26:17;101118.84;;;24.20;66.56
48244;BME280;34053;51.088;6.572;2023-08-12T02:29:08;101124.31;;;24.18;66.79
48244;BME280;34053;51.088;6.572;2023-08-12T02:31:59;101129.78;;;24.17;66.66
48244;BME280;34053;51.088;6.572;2023-08-12T02:34:49;101121.00;;;24.15;66.79
48244;BME280;34053;51.088;6.572;2023-08-12T02:37:40;101112.25;;;24.13;66.58
48244;BME280;34053;51.088;6.572;2023-08-12T02:40:31;101106.91;;;24.13;66.74
48244;BME280;34053;51.088;6.572;2023-08-12T02:43:22;101097.84;;;24.14;67.31
48244;BME280;34053;51.088;6.572;2023-08-12T02:46:12;101101.78;;;24.10;67.44
48244;BME280;34053;51.088;6.572;2023-08-12T02:49:05;101096.63;;;24.07;67.29
48244;BME280;34053;51.088;6.572;2023-08-12T02:51:56;101096.53;;;24.08;67.11
48244;BME280;34053;51.088;6.572;2023-08-12T02:54:47;101091.41;;;24.05;67.36
48244;BME280;34053;51.088;6.572;2023-08-12T02:57:38;101086.78;;;24.07;67.16
48244;BME280;34053;51.088;6.572;2023-08-12T03:00:28;101077.16;;;24.04;67.25
48244;BME280;34053;51.088;6.572;2023-08-12T03:03:19;101084.47;;;24.02;67.45
48244;BME280;34053;51.088;6.572;2023-08-12T03:06:10;101082.75;;;24.01;67.20
48244;BME280;34053;51.088;6.572;2023-08-12T03:09:01;101073.13;;;23.99;68.85
48244;BME280;34053;51.088;6.572;2023-08-12T03:11:52;101071.44;;;23.98;67.50
48244;BME280;34053;51.088;6.572;2023-08-12T03:14:42;101067.16;;;23.95;67.70
48244;BME280;34053;51.088;6.572;2023-08-12T03:17:33;101063.53;;;23.96;67.48
48244;BME280;34053;51.088;6.572;2023-08-12T03:20:24;101056.66;;;23.92;67.81
48244;BME280;34053;51.088;6.572;2023-08-12T03:23:15;101049.56;;;23.91;67.46
48244;BME280;34053;51.088;6.572;2023-08-12T03:26:06;101049.72;;;23.89;67.95
48244;BME280;34053;51.088;6.572;2023-08-12T03:28:57;101048.75;;;23.91;67.66
48244;BME280;34053;51.088;6.572;2023-08-12T03:31:48;101047.78;;;23.92;68.07
48244;BME280;34053;51.088;6.572;2023-08-12T03:34:39;101036.06;;;23.93;68.00
48244;BME280;34053;51.088;6.572;2023-08-12T03:37:30;101029.38;;;23.87;68.31
48244;BME280;34053;51.088;6.572;2023-08-12T03:40:21;101027.53;;;23.87;67.80
48244;BME280;34053;51.088;6.572;2023-08-12T03:43:11;101020.38;;;23.88;67.92
48244;BME280;34053;51.088;6.572;2023-08-12T03:46:02;101015.09;;;23.86;67.88
48244;BME280;34053;51.088;6.572;2023-08-12T03:48:53;101011.31;;;23.89;68.27
48244;BME280;34053;51.088;6.572;2023-08-12T03:51:44;101003.66;;;23.84;68.19
48244;BME280;34053;51.088;6.572;2023-08-12T03:54:34;101007.44;;;23.82;68.39
48244;BME280;34053;51.088;6.572;2023-08-12T03:57:25;101001.94;;;23.72;70.82
48244;BME280;34053;51.088;6.572;2023-08-12T04:00:16;101006.09;;;23.76;68.40
48244;BME280;34053;51.088;6.572;2023-08-12T04:03:07;101006.22;;;23.74;68.14
48244;BME280;34053;51.088;6.572;2023-08-12T04:05:58;101000.72;;;23.76;68.45
48244;BME280;34053;51.088;6.572;2023-08-12T04:08:48;101003.78;;;23.71;68.96
48244;BME280;34053;51.088;6.572;2023-08-12T04:11:39;101007.31;;;23.72;68.92
48244;BME280;34053;51.088;6.572;2023-08-12T04:14:30;101012.53;;;23.73;68.23
48244;BME280;34053;51.088;6.572;2023-08-12T04:17:21;101016.31;;;23.71;68.02
48244;BME280;34053;51.088;6.572;2023-08-12T04:20:11;101023.38;;;23.72;68.74
48244;BME280;34053;51.088;6.572;2023-08-12T04:23:02;101022.53;;;23.71;68.56
48244;BME280;34053;51.088;6.572;2023-08-12T04:25:53;101017.41;;;23.68;68.53
48244;BME280;34053;51.088;6.572;2023-08-12T04:28:44;101009.25;;;23.70;68.31
48244;BME280;34053;51.088;6.572;2023-08-12T04:31:35;101003.28;;;23.66;69.06
48244;BME280;34053;51.088;6.572;2023-08-12T04:34:26;101001.56;;;23.65;68.72
48244;BME280;34053;51.088;6.572;2023-08-12T04:37:17;100996.22;;;23.65;68.66
48244;BME280;34053;51.088;6.572;2023-08-12T04:40:08;100994.41;;;23.66;68.78
48244;BME280;34053;51.088;6.572;2023-08-12T04:42:59;100991.97;;;23.63;69.07
48244;BME280;34053;51.088;6.572;2023-08-12T04:45:50;100993.91;;;23.61;69.06
48244;BME280;34053;51.088;6.572;2023-08-12T04:48:41;100991.22;;;23.61;68.94
48244;BME280;34053;51.088;6.572;2023-08-12T04:51:32;100986.00;;;23.59;68.75
48244;BME280;34053;51.088;6.572;2023-08-12T04:54:23;100984.16;;;23.60;68.66
48244;BME280;34053;51.088;6.572;2023-08-12T04:57:14;100978.09;;;23.57;68.77
48244;BME280;34053;51.088;6.572;2023-08-12T05:00:05;100980.75;;;23.57;68.76
48244;BME280;34053;51.088;6.572;2023-08-12T05:02:58;100979.19;;;23.55;68.75
48244;BME280;34053;51.088;6.572;2023-08-12T05:05:51;100976.38;;;23.56;68.95
48244;BME280;34053;51.088;6.572;2023-08-12T05:08:42;100977.13;;;23.58;68.72
48244;BME280;34053;51.088;6.572;2023-08-12T05:11:33;100973.69;;;23.56;69.10
48244;BME280;34053;51.088;6.572;2023-08-12T05:14:23;100979.19;;;23.55;69.04
48244;BME280;34053;51.088;6.572;2023-08-12T05:17:14;100967.38;;;23.57;69.27
48244;BME280;34053;51.088;6.572;2023-08-12T05:20:06;100965.66;;;23.56;69.14
48244;BME280;34053;51.088;6.572;2023-08-12T05:22:57;100957.03;;;23.53;70.36
48244;BME280;34053;51.088;6.572;2023-08-12T05:25:48;100961.50;;;23.52;70.21
48244;BME280;34053;51.088;6.572;2023-08-12T05:28:39;100965.88;;;23.53;69.56
48244;BME280;34053;51.088;6.572;2023-08-12T05:31:29;100975.75;;;23.53;69.67
48244;BME280;34053;51.088;6.572;2023-08-12T05:34:20;100975.63;;;23.54;70.26
48244;BME280;34053;51.088;6.572;2023-08-12T05:37:11;100980.25;;;23.52;71.47
48244;BME280;34053;51.088;6.572;2023-08-12T05:40:02;100990.97;;;23.52;71.08
48244;BME280;34053;51.088;6.572;2023-08-12T05:42:54;100993.91;;;23.49;71.73
48244;BME280;34053;51.088;6.572;2023-08-12T05:45:45;100987.56;;;23.50;74.15
48244;BME280;34053;51.088;6.572;2023-08-12T05:48:36;100992.53;;;23.44;71.99
48244;BME280;34053;51.088;6.572;2023-08-12T05:51:27;100990.47;;;23.47;71.78
48244;BME280;34053;51.088;6.572;2023-08-12T05:54:17;100995.09;;;23.45;71.01
48244;BME280;34053;51.088;6.572;2023-08-12T05:57:08;100985.34;;;23.44;70.83
48244;BME280;34053;51.088;6.572;2023-08-12T06:00:00;100977.66;;;23.39;70.84
48244;BME280;34053;51.088;6.572;2023-08-12T06:02:50;100979.50;;;23.39;71.15
48244;BME280;34053;51.088;6.572;2023-08-12T06:05:44;100973.53;;;23.35;70.72
48244;BME280;34053;51.088;6.572;2023-08-12T06:08:35;100974.38;;;23.36;71.01
48244;BME280;34053;51.088;6.572;2023-08-12T06:11:26;100969.28;;;23.33;71.26
48244;BME280;34053;51.088;6.572;2023-08-12T06:14:17;100973.16;;;23.29;71.46
48244;BME280;34053;51.088;6.572;2023-08-12T06:17:08;100970.72;;;23.25;74.42
48244;BME280;34053;51.088;6.572;2023-08-12T06:19:58;100973.75;;;23.21;73.27
48244;BME280;34053;51.088;6.572;2023-08-12T06:22:50;100967.75;;;23.17;74.43
48244;BME280;34053;51.088;6.572;2023-08-12T06:25:41;100963.28;;;23.18;73.84
48244;BME280;34053;51.088;6.572;2023-08-12T06:28:33;100971.09;;;23.21;74.12
48244;BME280;34053;51.088;6.572;2023-08-12T06:31:24;100961.13;;;23.10;74.53
48244;BME280;34053;51.088;6.572;2023-08-12T06:34:14;100952.91;;;23.13;73.29
48244;BME280;34053;51.088;6.572;2023-08-12T06:37:05;100951.94;;;23.14;74.50
48244;BME280;34053;51.088;6.572;2023-08-12T06:39:56;100938.53;;;23.14;73.94
48244;BME280;34053;51.088;6.572;2023-08-12T06:42:47;100938.06;;;23.09;77.03
48244;BME280;34053;51.088;6.572;2023-08-12T06:45:37;100927.09;;;23.12;73.17
48244;BME280;34053;51.088;6.572;2023-08-12T06:48:28;100909.09;;;23.14;73.04
48244;BME280;34053;51.088;6.572;2023-08-12T06:51:19;100899.50;;;23.11;73.55
48244;BME280;34053;51.088;6.572;2023-08-12T06:54:10;100904.50;;;23.16;72.35
48244;BME280;34053;51.088;6.572;2023-08-12T06:57:01;100912.19;;;23.21;72.26
48244;BME280;34053;51.088;6.572;2023-08-12T06:59:52;100907.31;;;23.26;73.10
48244;BME280;34053;51.088;6.572;2023-08-12T07:02:42;100919.13;;;23.23;72.93
48244;BME280;34053;51.088;6.572;2023-08-12T07:05:33;100939.22;;;23.29;72.29
48244;BME280;34053;51.088;6.572;2023-08-12T07:08:24;100938.47;;;23.27;73.96
48244;BME280;34053;51.088;6.572;2023-08-12T07:11:15;100942.25;;;23.36;74.78
48244;BME280;34053;51.088;6.572;2023-08-12T07:14:06;100957.47;;;23.35;76.01
48244;BME280;34053;51.088;6.572;2023-08-12T07:16:56;100945.91;;;23.35;74.83
48244;BME280;34053;51.088;6.572;2023-08-12T07:19:47;100929.00;;;23.34;75.16
48244;BME280;34053;51.088;6.572;2023-08-12T07:22:38;100931.31;;;23.39;73.83
48244;BME280;34053;51.088;6.572;2023-08-12T07:25:29;100936.94;;;23.47;74.98
48244;BME280;34053;51.088;6.572;2023-08-12T07:28:20;100945.56;;;23.51;74.69
48244;BME280;34053;51.088;6.572;2023-08-12T07:31:11;100940.94;;;23.41;76.72
48244;BME280;34053;51.088;6.572;2023-08-12T07:34:02;100933.13;;;23.27;78.10
48244;BME280;34053;51.088;6.572;2023-08-12T07:36:52;100929.59;;;23.38;75.54
48244;BME280;34053;51.088;6.572;2023-08-12T07:39:43;100923.16;;;23.40;74.01
48244;BME280;34053;51.088;6.572;2023-08-12T07:42:34;100931.69;;;23.46;74.26
48244;BME280;34053;51.088;6.572;2023-08-12T07:45:25;100946.28;;;23.41;74.58
48244;BME280;34053;51.088;6.572;2023-08-12T07:48:16;100941.81;;;23.42;75.54
48244;BME280;34053;51.088;6.572;2023-08-12T07:51:07;100945.94;;;23.46;74.34
48244;BME280;34053;51.088;6.572;2023-08-12T07:53:57;100940.31;;;23.38;75.92
48244;BME280;34053;51.088;6.572;2023-08-12T07:56:48;100935.56;;;23.41;76.29
48244;BME280;34053;51.088;6.572;2023-08-12T07:59:39;100926.34;;;23.46;73.92
48244;BME280;34053;51.088;6.572;2023-08-12T08:02:30;100923.75;;;23.44;73.64
48244;BME280;34053;51.088;6.572;2023-08-12T08:05:21;100915.16;;;23.52;73.44
48244;BME280;34053;51.088;6.572;2023-08-12T08:08:12;100916.94;;;23.51;74.67
48244;BME280;34053;51.088;6.572;2023-08-12T08:11:03;100923.66;;;23.57;74.57
48244;BME280;34053;51.088;6.572;2023-08-12T08:13:53;100922.09;;;23.66;74.51
48244;BME280;34053;51.088;6.572;2023-08-12T08:16:44;100924.00;;;23.52;77.50
48244;BME280;34053;51.088;6.572;2023-08-12T08:19:35;100935.59;;;23.64;74.78
48244;BME280;34053;51.088;6.572;2023-08-12T08:22:26;100927.06;;;23.59;76.60
48244;BME280;34053;51.088;6.572;2023-08-12T08:25:17;100910.28;;;23.68;75.60
48244;BME280;34053;51.088;6.572;2023-08-12T08:28:07;100919.88;;;23.71;75.37
48244;BME280;34053;51.088;6.572;2023-08-12T08:30:58;100921.59;;;23.72;74.64
48244;BME280;34053;51.088;6.572;2023-08-12T08:33:49;100942.88;;;23.73;74.78
48244;BME280;34053;51.088;6.572;2023-08-12T08:36:40;100934.00;;;23.73;75.03
48244;BME280;34053;51.088;6.572;2023-08-12T08:39:31;100949.22;;;23.72;75.88
48244;BME280;34053;51.088;6.572;2023-08-12T08:42:24;100940.22;;;23.73;75.39
48244;BME280;34053;51.088;6.572;2023-08-12T08:45:15;100943.84;;;23.72;74.67
48244;BME280;34053;51.088;6.572;2023-08-12T08:48:08;100933.41;;;23.69;77.16
48244;BME280;34053;51.088;6.572;2023-08-12T08:51:01;100936.59;;;23.63;75.76
48244;BME280;34053;51.088;6.572;2023-08-12T08:53:54;100941.09;;;23.74;75.78
48244;BME280;34053;51.088;6.572;2023-08-12T08:56:48;100943.50;;;23.66;75.57
48244;BME280;34053;51.088;6.572;2023-08-12T08:59:40;100939.38;;;23.50;77.63
48244;BME280;34053;51.088;6.572;2023-08-12T09:02:31;100947.59;;;23.36;78.43
48244;BME280;34053;51.088;6.572;2023-08-12T09:05:22;100947.50;;;23.37;78.72
48244;BME280;34053;51.088;6.572;2023-08-12T09:08:14;100955.03;;;23.32;79.42
48244;BME280;34053;51.088;6.572;2023-08-12T09:11:05;100953.22;;;23.44;78.70
48244;BME280;34053;51.088;6.572;2023-08-12T09:13:56;100953.13;;;23.46;79.32
48244;BME280;34053;51.088;6.572;2023-08-12T09:16:47;100951.91;;;23.38;80.67
48244;BME280;34053;51.088;6.572;2023-08-12T09:19:38;100951.06;;;23.49;79.79
48244;BME280;34053;51.088;6.572;2023-08-12T09:22:29;100946.66;;;23.48;78.92
48244;BME280;34053;51.088;6.572;2023-08-12T09:25:20;100948.84;;;23.54;78.18
48244;BME280;34053;51.088;6.572;2023-08-12T09:28:11;100944.97;;;23.47;78.53
48244;BME280;34053;51.088;6.572;2023-08-12T09:31:02;100943.13;;;23.59;78.20
48244;BME280;34053;51.088;6.572;2023-08-12T09:33:57;100954.09;;;23.45;78.92
48244;BME280;34053;51.088;6.572;2023-08-12T09:36:48;100956.88;;;23.32;80.58
48244;BME280;34053;51.088;6.572;2023-08-12T09:39:40;100953.97;;;23.46;78.75
48244;BME280;34053;51.088;6.572;2023-08-12T09:42:30;100944.09;;;23.35;79.59
48244;BME280;34053;51.088;6.572;2023-08-12T09:45:27;100953.47;;;23.41;80.00
48244;BME280;34053;51.088;6.572;2023-08-12T09:48:22;100939.34;;;23.39;79.58
48244;BME280;34053;51.088;6.572;2023-08-12T09:51:13;100934.72;;;23.41;78.78
48244;BME280;34053;51.088;6.572;2023-08-12T09:54:04;100932.03;;;23.52;77.73
48244;BME280;34053;51.088;6.572;2023-08-12T09:56:58;100932.66;;;23.33;77.93
48244;BME280;34053;51.088;6.572;2023-08-12T10:06:37;100939.47;;;23.02;79.22
48244;BME280;34053;51.088;6.572;2023-08-12T10:09:29;100938.31;;;23.17;79.96
48244;BME280;34053;51.088;6.572;2023-08-12T10:12:20;100925.91;;;23.16;79.79
48244;BME280;34053;51.088;6.572;2023-08-12T10:15:12;100933.97;;;23.27;79.63
48244;BME280;34053;51.088;6.572;2023-08-12T10:18:05;100928.41;;;23.42;79.27
48244;BME280;34053;51.088;6.572;2023-08-12T10:20:57;100925.47;;;23.45;78.55
48244;BME280;34053;51.088;6.572;2023-08-12T10:23:50;100920.38;;;23.53;78.13
48244;BME280;34053;51.088;6.572;2023-08-12T10:26:53;100920.25;;;23.55;77.96
48244;BME280;34053;51.088;6.572;2023-08-12T10:29:46;100915.38;;;23.49;78.43
48244;BME280;34053;51.088;6.572;2023-08-12T10:32:37;100937.16;;;23.44;79.58
48244;BME280;34053;51.088;6.572;2023-08-12T10:35:57;100939.25;;;23.05;82.29
48244;BME280;34053;51.088;6.572;2023-08-12T10:38:51;100941.31;;;23.48;80.13
48244;BME280;34053;51.088;6.572;2023-08-12T10:42:10;100949.31;;;23.37;82.52
48244;BME280;34053;51.088;6.572;2023-08-12T10:45:04;100943.47;;;23.32;81.91
48244;BME280;34053;51.088;6.572;2023-08-12T10:48:16;100948.41;;;23.14;83.20
48244;BME280;34053;51.088;6.572;2023-08-12T10:51:19;100957.22;;;23.03;84.54
48244;BME280;34053;51.088;6.572;2023-08-12T10:54:55;100950.16;;;22.66;86.29
48244;BME280;34053;51.088;6.572;2023-08-12T10:57:51;100940.16;;;22.81;86.47
48244;BME280;34053;51.088;6.572;2023-08-12T11:00:53;100937.69;;;22.78;86.63
48244;BME280;34053;51.088;6.572;2023-08-12T11:03:50;100934.09;;;22.90;85.66
48244;BME280;34053;51.088;6.572;2023-08-12T11:07:44;100931.03;;;23.19;83.84
48244;BME280;34053;51.088;6.572;2023-08-12T11:10:54;100934.75;;;23.05;84.40
48244;BME280;34053;51.088;6.572;2023-08-12T11:16:37;100921.28;;;23.18;85.04
48244;BME280;34053;51.088;6.572;2023-08-12T11:19:28;100909.63;;;23.19;85.62
48244;BME280;34053;51.088;6.572;2023-08-12T11:22:20;100910.63;;;23.41;84.73
48244;BME280;34053;51.088;6.572;2023-08-12T11:25:12;100907.72;;;23.55;84.47
48244;BME280;34053;51.088;6.572;2023-08-12T11:28:07;100911.59;;;23.63;83.23
48244;BME280;34053;51.088;6.572;2023-08-12T11:30:58;100907.47;;;23.47;82.21
48244;BME280;34053;51.088;6.572;2023-08-12T11:33:49;100907.94;;;23.52;82.34
48244;BME280;34053;51.088;6.572;2023-08-12T11:36:40;100910.16;;;23.47;82.40
48244;BME280;34053;51.088;6.572;2023-08-12T11:39:31;100908.78;;;23.64;81.53
48244;BME280;34053;51.088;6.572;2023-08-12T11:42:22;100907.81;;;23.65;80.79
48244;BME280;34053;51.088;6.572;2023-08-12T11:45:15;100913.53;;;23.61;80.47
48244;BME280;34053;51.088;6.572;2023-08-12T11:48:06;100911.38;;;23.66;80.21
48244;BME280;34053;51.088;6.572;2023-08-12T11:50:58;100904.91;;;23.57;81.16
48244;BME280;34053;51.088;6.572;2023-08-12T11:53:49;100912.59;;;23.50;81.12
48244;BME280;34053;51.088;6.572;2023-08-12T11:56:40;100913.53;;;23.38;80.50
48244;BME280;34053;51.088;6.572;2023-08-12T11:59:32;100907.34;;;23.37;81.54
48244;BME280;34053;51.088;6.572;2023-08-12T12:02:22;100902.59;;;23.41;80.45
48244;BME280;34053;51.088;6.572;2023-08-12T12:05:13;100903.44;;;23.64;81.44
48244;BME280;34053;51.088;6.572;2023-08-12T12:08:04;100892.97;;;23.84;82.87
48244;BME280;34053;51.088;6.572;2023-08-12T12:11:05;100890.28;;;23.84;81.96
48244;BME280;34053;51.088;6.572;2023-08-12T12:14:00;100891.28;;;23.94;81.36
48244;BME280;34053;51.088;6.572;2023-08-12T12:16:52;100890.41;;;24.05;80.48
48244;BME280;34053;51.088;6.572;2023-08-12T12:19:43;100891.09;;;24.18;80.35
48244;BME280;34053;51.088;6.572;2023-08-12T12:22:33;100892.78;;;24.31;78.78
48244;BME280;34053;51.088;6.572;2023-08-12T12:25:24;100894.66;;;23.85;78.54
48244;BME280;34053;51.088;6.572;2023-08-12T12:28:15;100915.88;;;23.65;78.71
48244;BME280;34053;51.088;6.572;2023-08-12T12:31:06;100909.88;;;23.27;79.10
48244;BME280;34053;51.088;6.572;2023-08-12T12:33:58;100937.91;;;23.57;78.83
48244;BME280;34053;51.088;6.572;2023-08-12T12:36:49;100950.59;;;23.67;79.29
48244;BME280;34053;51.088;6.572;2023-08-12T12:39:40;100968.47;;;23.78;79.16
48244;BME280;34053;51.088;6.572;2023-08-12T12:42:31;100959.81;;;23.63;79.48
48244;BME280;34053;51.088;6.572;2023-08-12T12:45:22;100955.56;;;23.83;78.53
48244;BME280;34053;51.088;6.572;2023-08-12T12:48:13;100956.91;;;23.88;79.23
48244;BME280;34053;51.088;6.572;2023-08-12T12:51:03;100964.19;;;23.86;79.71
48244;BME280;34053;51.088;6.572;2023-08-12T12:53:54;100964.19;;;23.86;79.28
48244;BME280;34053;51.088;6.572;2023-08-12T12:56:45;100963.97;;;23.67;81.98
48244;BME280;34053;51.088;6.572;2023-08-12T12:59:36;100960.53;;;23.76;83.53
48244;BME280;34053;51.088;6.572;2023-08-12T13:02:27;100968.22;;;23.69;83.29
48244;BME280;34053;51.088;6.572;2023-08-12T13:05:18;100969.84;;;23.95;80.76
48244;BME280;34053;51.088;6.572;2023-08-12T13:08:09;100978.47;;;23.87;82.80
48244;BME280;34053;51.088;6.572;2023-08-12T13:10:59;100967.84;;;23.51;83.26
48244;BME280;34053;51.088;6.572;2023-08-12T13:13:50;100982.47;;;23.70;81.81
48244;BME280;34053;51.088;6.572;2023-08-12T13:16:41;100977.63;;;23.98;80.36
48244;BME280;34053;51.088;6.572;2023-08-12T13:19:32;100978.84;;;23.94;81.43
48244;BME280;34053;51.088;6.572;2023-08-12T13:22:22;100979.53;;;23.84;81.60
48244;BME280;34053;51.088;6.572;2023-08-12T13:25:13;100984.91;;;23.73;81.92
48244;BME280;34053;51.088;6.572;2023-08-12T13:28:05;100987.31;;;23.76;81.35
48244;BME280;34053;51.088;6.572;2023-08-12T13:30:56;100998.47;;;23.94;79.17
48244;BME280;34053;51.088;6.572;2023-08-12T13:33:47;100991.13;;;23.85;79.77
48244;BME280;34053;51.088;6.572;2023-08-12T13:36:38;100993.19;;;23.93;78.87
48244;BME280;34053;51.088;6.572;2023-08-12T13:39:29;100992.47;;;23.91;80.17
48244;BME280;34053;51.088;6.572;2023-08-12T13:42:19;100994.09;;;24.04;78.69
48244;BME280;34053;51.088;6.572;2023-08-12T13:45:11;100992.84;;;23.86;79.51
48244;BME280;34053;51.088;6.572;2023-08-12T13:48:02;100993.44;;;23.89;79.42
48244;BME280;34053;51.088;6.572;2023-08-12T13:50:53;100999.91;;;24.21;79.62
48244;BME280;34053;51.088;6.572;2023-08-12T13:53:44;101006.84;;;24.01;78.51
48244;BME280;34053;51.088;6.572;2023-08-12T13:56:34;101005.16;;;24.00;78.27
48244;BME280;34053;51.088;6.572;2023-08-12T13:59:25;101002.38;;;24.13;77.10
48244;BME280;34053;51.088;6.572;2023-08-12T14:02:16;101006.63;;;24.15;76.39
48244;BME280;34053;51.088;6.572;2023-08-12T14:05:07;100997.25;;;24.21;76.15
48244;BME280;34053;51.088;6.572;2023-08-12T14:07:58;100996.31;;;24.43;76.60
48244;BME280;34053;51.088;6.572;2023-08-12T14:10:49;100999.34;;;24.61;76.04
48244;BME280;34053;51.088;6.572;2023-08-12T14:13:40;100994.31;;;24.79;76.96
48244;BME280;34053;51.088;6.572;2023-08-12T14:16:31;100999.75;;;24.89;74.10
48244;BME280;34053;51.088;6.572;2023-08-12T14:19:22;101005.00;;;24.91;72.82
48244;BME280;34053;51.088;6.572;2023-08-12T14:22:13;100993.22;;;25.03;73.46
48244;BME280;34053;51.088;6.572;2023-08-12T14:25:04;100989.41;;;25.06;72.22
48244;BME280;34053;51.088;6.572;2023-08-12T14:27:55;101000.06;;;25.28;71.27
48244;BME280;34053;51.088;6.572;2023-08-12T14:30:46;100993.38;;;25.23;69.95
48244;BME280;34053;51.088;6.572;2023-08-12T14:33:37;100991.13;;;25.28;69.66
48244;BME280;34053;51.088;6.572;2023-08-12T14:36:28;100992.59;;;25.32;68.47
48244;BME280;34053;51.088;6.572;2023-08-12T14:39:19;100989.00;;;25.43;69.13
48244;BME280;34053;51.088;6.572;2023-08-12T14:42:09;100997.06;;;25.43;67.41
48244;BME280;34053;51.088;6.572;2023-08-12T14:45:02;100994.75;;;25.59;67.03
48244;BME280;34053;51.088;6.572;2023-08-12T14:47:53;100989.94;;;25.53;65.93
48244;BME280;34053;51.088;6.572;2023-08-12T14:50:45;100986.31;;;25.64;65.72
48244;BME280;34053;51.088;6.572;2023-08-12T14:53:35;100980.53;;;25.69;65.79
48244;BME280;34053;51.088;6.572;2023-08-12T14:56:26;100983.00;;;25.82;64.01
48244;BME280;34053;51.088;6.572;2023-08-12T14:59:17;100986.16;;;25.97;63.05
48244;BME280;34053;51.088;6.572;2023-08-12T15:02:09;100981.31;;;26.21;62.09
48244;BME280;34053;51.088;6.572;2023-08-12T15:05:00;100977.22;;;26.27;60.91
48244;BME280;34053;51.088;6.572;2023-08-12T15:07:51;100983.16;;;26.31;60.61
48244;BME280;34053;51.088;6.572;2023-08-12T15:10:42;100979.81;;;26.38;60.55
48244;BME280;34053;51.088;6.572;2023-08-12T15:13:33;100975.03;;;26.81;59.10